Airfield :
LOGIN :

Register | Disclaimer

   EN    FR    IT 

 










Legend :    VFR   Marginal VFR   IFR   Intensive IFR   Very Intensive IFR
Visi :
Ceiling :
>= 8 km
>= 3000ft
5 to 8 km
1000 to 3000 ft
1500m to 5 km
500 to 1000 ft
800 to 1500m
200 to 500 ft
< 800m
< 200 ft
Symbols :   Thunderstorms  Fog  Heavy snow  Heavy precipitations  Wind > 20 kt
SIGMETs :     Misc.  Thunderstorms  Icing  Turbulence  Mountain Waves  Volcanic Ashes






- Airport Elevation : 177 ft
- IATA code : BRI


LIBD - Palese Macchie Bari

CURRENT METAR :
  • 141150Z 36008KT 320V050 CAVOK 25/13 Q1017

EXPIRED METARs :
  • 141120Z 36008KT 320V040 CAVOK 25/12 Q1017
  • 141050Z 33009KT 300V010 CAVOK 25/12 Q1017
  • 141020Z 33010KT 300V010 CAVOK 25/13 Q1017
  • 140950Z 32010KT 270V350 CAVOK 24/12 Q1017
  • 140920Z 31011KT 270V350 CAVOK 24/13 Q1017
  • 140850Z 32010KT 280V020 CAVOK 24/13 Q1017
  • 140820Z 33010KT 290V360 CAVOK 23/13 Q1017
  • 140750Z 31009KT 270V360 CAVOK 24/13 Q1017
  • 140720Z 31010KT 260V350 CAVOK 23/13 Q1016
  • 140650Z 30009KT 260V340 CAVOK 23/12 Q1016

TAF TAF LIBD
Valid from the 14 at 12:00 until the 15 at 12:00 UTC


141100Z 1412/1512 02013KT 9999 FEW035
BECMG 1416/1418 VRB05KT
BECMG 1509/1511 03010KT



MET'MAP, your aeronautical weather chart ! - Copyright ORBIFLY December 2007 - Disclaimer

ORBIFLY MET'MAP TEAM :

Programming & Development : Alexandra Zaïnal
Original concept : Baudouin d'Aumeries
Technical & hardware support : Manuel Goepfert
Assistance : Marc-Olivier Méhu




SOURCES & CREDITS :

   NOAA